createdAt,value
2019-03-17T00:00:16.465Z,93.31
2019-03-17T00:02:46.950Z,93.29
2019-03-17T00:05:17.580Z,93.19
2019-03-17T00:07:48.039Z,93.43
2019-03-17T00:10:18.522Z,93.67
2019-03-17T00:12:49.097Z,93.57
2019-03-17T00:15:19.680Z,93.55
2019-03-17T00:17:50.491Z,93.48
2019-03-17T00:20:21.030Z,93.58
2019-03-17T00:22:51.591Z,93.63
2019-03-17T00:25:23.221Z,93.67
2019-03-17T00:27:53.671Z,93.68
2019-03-17T00:30:24.123Z,93.57
2019-03-17T00:32:54.612Z,93.63
2019-03-17T00:35:25.141Z,93.15
2019-03-17T00:37:55.655Z,92.71
2019-03-17T00:40:26.146Z,92.70
2019-03-17T00:42:56.583Z,92.70
2019-03-17T00:45:27.026Z,92.69
2019-03-17T00:47:57.600Z,92.51
2019-03-17T00:50:28.259Z,92.66
2019-03-17T00:52:58.775Z,92.78
2019-03-17T00:55:29.385Z,92.87
2019-03-17T00:58:00.121Z,92.91
2019-03-17T01:00:32.415Z,92.88
2019-03-17T01:03:02.959Z,93.02
2019-03-17T01:05:33.330Z,93.17
2019-03-17T01:08:03.996Z,93.33
2019-03-17T01:10:34.636Z,93.46
2019-03-17T01:13:05.096Z,93.90
2019-03-17T01:15:35.701Z,94.16
2019-03-17T01:18:06.215Z,94.44
2019-03-17T01:20:36.775Z,94.51
2019-03-17T01:23:07.211Z,94.59
2019-03-17T01:25:37.793Z,94.58
2019-03-17T01:28:08.831Z,94.70
2019-03-17T01:30:39.502Z,94.84
2019-03-17T01:33:10.540Z,95.16
2019-03-17T01:35:41.544Z,95.72
2019-03-17T01:38:11.970Z,96.15
2019-03-17T01:40:42.445Z,96.40
2019-03-17T01:43:12.867Z,96.41
2019-03-17T01:45:43.445Z,96.38
2019-03-17T01:48:13.979Z,96.38
2019-03-17T01:50:44.616Z,96.26
2019-03-17T01:53:15.191Z,96.27
2019-03-17T01:55:45.736Z,96.31
2019-03-17T01:58:16.171Z,96.35
2019-03-17T02:00:46.755Z,96.32
2019-03-17T02:03:17.379Z,96.31
2019-03-17T02:05:47.685Z,96.29
2019-03-17T02:08:18.031Z,96.32
2019-03-17T02:10:48.490Z,96.34
2019-03-17T02:13:18.802Z,96.33
2019-03-17T02:15:49.333Z,96.30
2019-03-17T02:18:19.787Z,96.30
2019-03-17T02:20:50.085Z,96.26
2019-03-17T02:23:20.551Z,96.25
2019-03-17T02:25:51.065Z,96.26
2019-03-17T02:28:21.581Z,96.26
2019-03-17T02:30:52.160Z,96.29
2019-03-17T02:33:22.690Z,96.31
2019-03-17T02:35:53.080Z,96.33
2019-03-17T02:38:23.613Z,96.27
2019-03-17T02:40:54.182Z,96.16
2019-03-17T02:43:24.552Z,96.18
2019-03-17T02:45:55.177Z,96.31
2019-03-17T02:48:25.555Z,96.40
2019-03-17T02:50:56.041Z,96.51
2019-03-17T02:53:26.451Z,96.61
2019-03-17T02:55:56.911Z,96.62
2019-03-17T02:58:27.235Z,96.50
2019-03-17T03:00:57.683Z,96.47
2019-03-17T03:03:28.274Z,96.43
2019-03-17T03:05:58.673Z,95.74
2019-03-17T03:08:29.212Z,95.62
2019-03-17T03:10:59.796Z,95.55
2019-03-17T03:13:30.349Z,95.49
2019-03-17T03:16:00.859Z,95.54
2019-03-17T03:18:31.331Z,95.47
2019-03-17T03:21:01.785Z,95.42
2019-03-17T03:23:32.260Z,95.39
2019-03-17T03:26:02.774Z,95.19
2019-03-17T03:28:33.186Z,95.21
2019-03-17T03:31:03.818Z,95.23
2019-03-17T03:33:34.655Z,95.03
2019-03-17T03:36:11.270Z,95.00
2019-03-17T03:38:37.491Z,95.00
2019-03-17T03:41:07.921Z,94.88
2019-03-17T03:43:38.272Z,94.66
2019-03-17T03:46:08.812Z,94.57
2019-03-17T03:48:39.206Z,94.36
2019-03-17T03:51:09.842Z,93.87
2019-03-17T03:53:40.386Z,93.58
2019-03-17T03:56:11.014Z,93.56
2019-03-17T03:58:41.546Z,93.66
2019-03-17T04:01:12.201Z,93.69
2019-03-17T04:03:42.923Z,93.44
2019-03-17T04:06:25.807Z,93.27
2019-03-17T04:08:45.643Z,93.15
2019-03-17T04:11:16.056Z,93.08
2019-03-17T04:13:46.674Z,92.98
2019-03-17T04:16:17.212Z,92.28
2019-03-17T04:18:47.674Z,92.12
2019-03-17T04:21:18.101Z,91.12
2019-03-17T04:23:48.564Z,91.24
2019-03-17T04:26:18.941Z,91.21
2019-03-17T04:28:49.485Z,91.35
2019-03-17T04:31:19.813Z,91.27
2019-03-17T04:33:50.206Z,91.24
2019-03-17T04:36:20.651Z,91.14
2019-03-17T04:38:51.071Z,91.15
2019-03-17T04:41:21.759Z,91.29
2019-03-17T04:43:52.241Z,91.44
2019-03-17T04:46:22.686Z,91.56
2019-03-17T04:48:53.289Z,91.47
2019-03-17T04:51:23.841Z,91.45
2019-03-17T04:53:54.240Z,91.57
2019-03-17T04:56:24.697Z,91.62
2019-03-17T04:58:55.104Z,91.80
2019-03-17T05:01:25.575Z,92.04
2019-03-17T05:03:56.190Z,92.18
2019-03-17T05:06:26.658Z,92.21
2019-03-17T05:08:57.036Z,91.97
2019-03-17T05:11:27.751Z,91.54
2019-03-17T05:13:58.142Z,91.44
2019-03-17T05:16:28.550Z,91.61
2019-03-17T05:18:58.980Z,91.61
2019-03-17T05:21:29.444Z,91.86
2019-03-17T05:23:59.850Z,91.94
2019-03-17T05:26:30.695Z,91.17
2019-03-17T05:29:01.104Z,90.04
2019-03-17T05:31:31.522Z,89.20
2019-03-17T05:34:02.029Z,88.79
2019-03-17T05:36:32.500Z,88.79
2019-03-17T05:39:04.341Z,88.63
2019-03-17T05:41:34.877Z,87.96
2019-03-17T05:44:05.581Z,87.83
2019-03-17T05:46:36.090Z,87.92
2019-03-17T05:49:06.681Z,87.81
2019-03-17T05:51:37.164Z,87.52
2019-03-17T05:54:07.732Z,87.00
2019-03-17T05:56:38.214Z,85.75
2019-03-17T05:59:08.639Z,84.37
2019-03-17T06:01:39.075Z,82.68
2019-03-17T06:04:09.644Z,83.13
2019-03-17T06:06:40.116Z,81.54
2019-03-17T06:09:10.714Z,79.03
2019-03-17T06:11:41.216Z,77.79
2019-03-17T06:14:11.649Z,78.39
2019-03-17T06:16:42.176Z,77.89
2019-03-17T06:19:13.722Z,76.37
2019-03-17T06:21:44.217Z,76.10
2019-03-17T06:24:14.751Z,76.97
2019-03-17T06:26:45.215Z,77.82
2019-03-17T06:29:15.666Z,79.01
2019-03-17T06:31:46.110Z,77.19
2019-03-17T06:34:16.675Z,76.65
2019-03-17T06:36:47.026Z,77.67
2019-03-17T06:39:17.618Z,77.54
2019-03-17T06:41:48.064Z,77.32
2019-03-17T06:44:18.595Z,76.99
2019-03-17T06:46:49.108Z,76.99
2019-03-17T06:49:19.604Z,76.74
2019-03-17T06:51:50.156Z,75.55
2019-03-17T06:54:20.579Z,74.82
2019-03-17T06:56:51.537Z,71.91
2019-03-17T06:59:21.962Z,69.62
2019-03-17T07:01:52.462Z,68.00
2019-03-17T07:04:23.071Z,65.81
2019-03-17T07:06:55.259Z,64.83
2019-03-17T07:09:25.973Z,62.91
2019-03-17T07:11:56.486Z,63.31
2019-03-17T07:14:27.073Z,63.93
2019-03-17T07:16:57.505Z,64.11
2019-03-17T07:19:28.211Z,65.31
2019-03-17T07:21:58.851Z,61.55
2019-03-17T07:24:29.358Z,59.20
2019-03-17T07:26:59.796Z,58.42
2019-03-17T07:29:30.294Z,56.63
2019-03-17T07:32:00.777Z,59.13
2019-03-17T07:34:31.510Z,54.99
2019-03-17T07:37:02.506Z,54.12
2019-03-17T07:39:32.991Z,56.19
2019-03-17T07:42:03.671Z,55.96
2019-03-17T07:44:38.290Z,57.48
2019-03-17T07:47:09.166Z,59.92
2019-03-17T07:49:39.681Z,59.70
2019-03-17T07:52:10.460Z,60.80
2019-03-17T07:54:40.999Z,60.94
2019-03-17T07:57:11.400Z,61.76
2019-03-17T07:59:41.940Z,59.84
2019-03-17T08:02:12.696Z,57.81
2019-03-17T08:04:46.125Z,59.81
2019-03-17T08:07:15.665Z,58.79
2019-03-17T08:09:46.194Z,57.61
2019-03-17T08:12:16.813Z,55.88
2019-03-17T08:14:47.373Z,54.45
2019-03-17T08:17:18.010Z,53.12
2019-03-17T08:19:48.642Z,53.36
2019-03-17T08:22:19.233Z,47.42
2019-03-17T08:24:49.709Z,52.39
2019-03-17T08:27:20.351Z,51.49
2019-03-17T08:29:50.796Z,47.69
2019-03-17T08:32:21.292Z,46.51
2019-03-17T08:34:51.927Z,46.18
2019-03-17T08:37:22.529Z,46.61
2019-03-17T08:39:53.456Z,42.23
2019-03-17T08:42:24.366Z,39.81
2019-03-17T08:44:54.803Z,46.39
2019-03-17T08:47:25.511Z,47.47
2019-03-17T08:49:56.118Z,49.76
2019-03-17T08:52:26.835Z,45.84
2019-03-17T08:54:57.422Z,43.25
2019-03-17T08:57:27.832Z,41.18
2019-03-17T08:59:58.307Z,39.62
2019-03-17T09:02:29.297Z,39.99
2019-03-17T09:05:00.064Z,40.98
2019-03-17T09:07:30.613Z,40.41
2019-03-17T09:10:01.830Z,36.77
2019-03-17T09:12:32.694Z,36.08
2019-03-17T09:15:03.566Z,37.42
2019-03-17T09:17:34.362Z,37.87
2019-03-17T09:20:05.452Z,37.20
2019-03-17T09:22:36.007Z,38.19
2019-03-17T09:25:07.574Z,37.56
2019-03-17T09:27:38.276Z,37.94
2019-03-17T09:30:11.234Z,37.11
2019-03-17T09:32:41.892Z,37.35
2019-03-17T09:35:12.664Z,36.24
2019-03-17T09:37:43.369Z,35.27
2019-03-17T09:40:14.264Z,35.93
2019-03-17T09:42:44.946Z,36.50
2019-03-17T09:45:15.703Z,35.71
2019-03-17T09:47:46.436Z,36.50
2019-03-17T09:50:17.035Z,34.55
2019-03-17T09:52:47.585Z,34.91
2019-03-17T09:55:18.240Z,31.73
2019-03-17T09:57:48.985Z,32.02
2019-03-17T10:00:19.554Z,31.70
2019-03-17T10:02:50.035Z,30.79
2019-03-17T10:05:20.612Z,30.93
2019-03-17T10:07:50.996Z,31.03
2019-03-17T10:10:21.829Z,30.79
2019-03-17T10:12:52.508Z,28.95
2019-03-17T10:15:22.996Z,28.51
2019-03-17T10:17:53.829Z,30.57
2019-03-17T10:20:24.451Z,30.39
2019-03-17T10:22:54.918Z,28.86
2019-03-17T10:25:25.524Z,28.33
2019-03-17T10:27:56.018Z,28.77
2019-03-17T10:30:26.493Z,30.40
2019-03-17T10:32:57.014Z,27.55
2019-03-17T10:35:27.467Z,27.91
2019-03-17T10:37:57.995Z,28.92
2019-03-17T10:40:29.019Z,28.55
2019-03-17T10:42:59.646Z,25.75
2019-03-17T10:45:30.067Z,26.41
2019-03-17T10:48:00.481Z,25.62
2019-03-17T10:50:31.217Z,27.19
2019-03-17T10:53:02.060Z,26.84
2019-03-17T10:55:32.661Z,28.37
2019-03-17T10:58:03.244Z,31.07
2019-03-17T11:00:33.810Z,29.31
2019-03-17T11:03:04.836Z,29.52
2019-03-17T11:05:35.523Z,28.18
2019-03-17T11:08:06.139Z,27.54
2019-03-17T11:10:36.855Z,28.03
2019-03-17T11:13:07.588Z,27.13
2019-03-17T11:15:38.135Z,28.53
2019-03-17T11:18:09.001Z,27.91
2019-03-17T11:20:39.950Z,28.39
2019-03-17T11:23:10.496Z,27.77
2019-03-17T11:25:41.199Z,29.48
2019-03-17T11:28:11.841Z,31.92
2019-03-17T11:30:42.530Z,30.35
2019-03-17T11:33:13.331Z,30.45
2019-03-17T11:35:43.861Z,30.96
2019-03-17T11:38:14.506Z,30.36
2019-03-17T11:40:45.141Z,31.15
2019-03-17T11:43:15.560Z,31.55
2019-03-17T11:45:46.069Z,30.31
2019-03-17T11:48:17.015Z,31.39
